sensor_id;sensor_type;location;lat;lon;timestamp;temperature;humidity
18392;DHT22;9322;50.932;5.318;2023-04-01T00:00:19;9.80;99.90
18392;DHT22;9322;50.932;5.318;2023-04-01T00:02:45;9.90;99.90
18392;DHT22;9322;50.932;5.318;2023-04-01T00:05:11;9.90;99.90
18392;DHT22;9322;50.932;5.318;2023-04-01T00:07:38;10.00;99.90
18392;DHT22;9322;50.932;5.318;2023-04-01T00:10:05;10.00;99.90
18392;DHT22;9322;50.932;5.318;2023-04-01T00:12:31;9.90;99.90
18392;DHT22;9322;50.932;5.318;2023-04-01T00:14:57;10.00;99.90
18392;DHT22;9322;50.932;5.318;2023-04-01T00:17:23;9.90;99.90
18392;DHT22;9322;50.932;5.318;2023-04-01T00:19:49;9.90;99.90
18392;DHT22;9322;50.932;5.318;2023-04-01T00:22:14;9.80;99.90
18392;DHT22;9322;50.932;5.318;2023-04-01T00:24:41;9.80;99.90
18392;DHT22;9322;50.932;5.318;2023-04-01T00:27:06;9.80;99.90
18392;DHT22;9322;50.932;5.318;2023-04-01T00:29:33;9.90;99.90
18392;DHT22;9322;50.932;5.318;2023-04-01T00:32:00;9.90;99.90
18392;DHT22;9322;50.932;5.318;2023-04-01T00:34:26;9.90;99.90
18392;DHT22;9322;50.932;5.318;2023-04-01T00:36:52;9.90;99.90
18392;DHT22;9322;50.932;5.318;2023-04-01T00:39:19;9.90;99.90
18392;DHT22;9322;50.932;5.318;2023-04-01T00:41:45;9.90;99.90
18392;DHT22;9322;50.932;5.318;2023-04-01T00:46:44;9.80;99.90
18392;DHT22;9322;50.932;5.318;2023-04-01T00:49:10;9.80;99.90
18392;DHT22;9322;50.932;5.318;2023-04-01T00:51:38;9.80;99.90
18392;DHT22;9322;50.932;5.318;2023-04-01T00:54:04;9.90;99.90
18392;DHT22;9322;50.932;5.318;2023-04-01T00:56:35;9.90;99.90
18392;DHT22;9322;50.932;5.318;2023-04-01T00:59:06;9.90;99.90
18392;DHT22;9322;50.932;5.318;2023-04-01T01:01:34;10.00;99.90
18392;DHT22;9322;50.932;5.318;2023-04-01T01:04:01;10.10;99.90
18392;DHT22;9322;50.932;5.318;2023-04-01T01:07:04;10.00;99.90
18392;DHT22;9322;50.932;5.318;2023-04-01T01:12:11;10.10;99.90
18392;DHT22;9322;50.932;5.318;2023-04-01T01:18:30;10.00;99.90
18392;DHT22;9322;50.932;5.318;2023-04-01T01:31:02;10.00;99.90
18392;DHT22;9322;50.932;5.318;2023-04-01T01:33:35;10.00;99.90
18392;DHT22;9322;50.932;5.318;2023-04-01T01:36:06;10.00;99.90
18392;DHT22;9322;50.932;5.318;2023-04-01T01:38:36;9.90;99.90
18392;DHT22;9322;50.932;5.318;2023-04-01T01:41:04;9.90;99.90
18392;DHT22;9322;50.932;5.318;2023-04-01T01:43:35;9.90;99.90
18392;DHT22;9322;50.932;5.318;2023-04-01T01:46:07;10.00;99.90
18392;DHT22;9322;50.932;5.318;2023-04-01T01:48:34;10.00;99.90
18392;DHT22;9322;50.932;5.318;2023-04-01T01:51:01;9.90;99.90
18392;DHT22;9322;50.932;5.318;2023-04-01T01:53:27;9.90;99.90
18392;DHT22;9322;50.932;5.318;2023-04-01T01:55:53;9.90;99.90
18392;DHT22;9322;50.932;5.318;2023-04-01T01:58:23;9.90;99.90
18392;DHT22;9322;50.932;5.318;2023-04-01T02:01:04;9.90;99.90
18392;DHT22;9322;50.932;5.318;2023-04-01T02:03:34;9.90;99.90
18392;DHT22;9322;50.932;5.318;2023-04-01T02:06:03;10.00;99.90
18392;DHT22;9322;50.932;5.318;2023-04-01T02:11:57;10.10;99.90
18392;DHT22;9322;50.932;5.318;2023-04-01T02:15:06;10.00;99.90
18392;DHT22;9322;50.932;5.318;2023-04-01T02:17:35;10.00;99.90
18392;DHT22;9322;50.932;5.318;2023-04-01T02:20:17;10.10;99.90
18392;DHT22;9322;50.932;5.318;2023-04-01T02:22:49;10.20;99.90
18392;DHT22;9322;50.932;5.318;2023-04-01T02:25:18;10.20;99.90
18392;DHT22;9322;50.932;5.318;2023-04-01T02:27:46;10.10;99.90
18392;DHT22;9322;50.932;5.318;2023-04-01T02:30:14;10.20;99.90
18392;DHT22;9322;50.932;5.318;2023-04-01T02:32:40;10.20;99.90
18392;DHT22;9322;50.932;5.318;2023-04-01T02:35:13;10.20;99.90
18392;DHT22;9322;50.932;5.318;2023-04-01T02:37:42;10.30;99.90
18392;DHT22;9322;50.932;5.318;2023-04-01T02:40:10;10.30;99.90
18392;DHT22;9322;50.932;5.318;2023-04-01T02:42:36;10.30;99.90
18392;DHT22;9322;50.932;5.318;2023-04-01T02:45:03;10.30;99.90
18392;DHT22;9322;50.932;5.318;2023-04-01T02:47:29;10.30;99.90
18392;DHT22;9322;50.932;5.318;2023-04-01T02:49:55;10.30;99.90
18392;DHT22;9322;50.932;5.318;2023-04-01T02:52:28;10.30;99.90
18392;DHT22;9322;50.932;5.318;2023-04-01T02:54:55;10.20;99.90
18392;DHT22;9322;50.932;5.318;2023-04-01T02:57:21;10.30;99.90
18392;DHT22;9322;50.932;5.318;2023-04-01T02:59:47;10.30;99.90
18392;DHT22;9322;50.932;5.318;2023-04-01T03:02:13;10.30;99.90
18392;DHT22;9322;50.932;5.318;2023-04-01T03:04:39;10.30;99.90
18392;DHT22;9322;50.932;5.318;2023-04-01T03:07:05;10.20;99.90
18392;DHT22;9322;50.932;5.318;2023-04-01T03:09:31;10.20;99.90
18392;DHT22;9322;50.932;5.318;2023-04-01T03:11:57;10.40;99.90
18392;DHT22;9322;50.932;5.318;2023-04-01T03:14:23;10.30;99.90
18392;DHT22;9322;50.932;5.318;2023-04-01T03:16:48;10.30;99.90
18392;DHT22;9322;50.932;5.318;2023-04-01T03:19:14;10.30;99.90
18392;DHT22;9322;50.932;5.318;2023-04-01T03:21:40;10.30;99.90
18392;DHT22;9322;50.932;5.318;2023-04-01T03:24:05;10.30;99.90
18392;DHT22;9322;50.932;5.318;2023-04-01T03:26:32;10.20;99.90
18392;DHT22;9322;50.932;5.318;2023-04-01T03:28:57;10.20;99.90
18392;DHT22;9322;50.932;5.318;2023-04-01T03:31:23;10.20;99.90
18392;DHT22;9322;50.932;5.318;2023-04-01T03:33:50;10.20;99.90
18392;DHT22;9322;50.932;5.318;2023-04-01T03:36:16;10.20;99.90
18392;DHT22;9322;50.932;5.318;2023-04-01T03:38:41;10.20;99.90
18392;DHT22;9322;50.932;5.318;2023-04-01T03:41:12;10.20;99.90
18392;DHT22;9322;50.932;5.318;2023-04-01T03:43:38;10.10;99.90
18392;DHT22;9322;50.932;5.318;2023-04-01T03:46:04;10.10;99.90
18392;DHT22;9322;50.932;5.318;2023-04-01T03:48:29;10.10;99.90
18392;DHT22;9322;50.932;5.318;2023-04-01T03:50:55;10.20;99.90
18392;DHT22;9322;50.932;5.318;2023-04-01T03:53:22;10.10;99.90
18392;DHT22;9322;50.932;5.318;2023-04-01T03:55:47;10.10;99.90
18392;DHT22;9322;50.932;5.318;2023-04-01T03:58:13;10.20;99.90
18392;DHT22;9322;50.932;5.318;2023-04-01T04:00:39;10.30;99.90
18392;DHT22;9322;50.932;5.318;2023-04-01T04:03:06;10.20;99.90
18392;DHT22;9322;50.932;5.318;2023-04-01T04:05:32;10.20;99.90
18392;DHT22;9322;50.932;5.318;2023-04-01T04:07:57;10.20;99.90
18392;DHT22;9322;50.932;5.318;2023-04-01T04:10:23;10.10;99.90
18392;DHT22;9322;50.932;5.318;2023-04-01T04:12:50;10.20;99.90
18392;DHT22;9322;50.932;5.318;2023-04-01T04:15:16;10.10;99.90
18392;DHT22;9322;50.932;5.318;2023-04-01T04:17:43;10.00;99.90
18392;DHT22;9322;50.932;5.318;2023-04-01T04:20:09;10.20;99.90
18392;DHT22;9322;50.932;5.318;2023-04-01T04:22:35;10.10;99.90
18392;DHT22;9322;50.932;5.318;2023-04-01T04:25:01;10.10;99.90
18392;DHT22;9322;50.932;5.318;2023-04-01T04:27:27;10.00;99.90
18392;DHT22;9322;50.932;5.318;2023-04-01T04:29:52;10.00;99.90
18392;DHT22;9322;50.932;5.318;2023-04-01T04:32:18;10.00;99.90
18392;DHT22;9322;50.932;5.318;2023-04-01T04:34:44;10.00;99.90
18392;DHT22;9322;50.932;5.318;2023-04-01T04:37:09;9.90;99.90
18392;DHT22;9322;50.932;5.318;2023-04-01T04:39:35;10.00;99.90
18392;DHT22;9322;50.932;5.318;2023-04-01T04:42:01;10.10;99.90
18392;DHT22;9322;50.932;5.318;2023-04-01T04:44:26;10.00;99.90
18392;DHT22;9322;50.932;5.318;2023-04-01T04:46:52;10.00;99.90
18392;DHT22;9322;50.932;5.318;2023-04-01T04:49:17;10.00;99.90
18392;DHT22;9322;50.932;5.318;2023-04-01T04:51:44;10.30;99.90
18392;DHT22;9322;50.932;5.318;2023-04-01T04:54:09;10.10;99.90
18392;DHT22;9322;50.932;5.318;2023-04-01T04:56:35;10.00;99.90
18392;DHT22;9322;50.932;5.318;2023-04-01T04:59:01;10.00;99.90
18392;DHT22;9322;50.932;5.318;2023-04-01T05:01:27;9.90;99.90
18392;DHT22;9322;50.932;5.318;2023-04-01T05:03:53;10.00;99.90
18392;DHT22;9322;50.932;5.318;2023-04-01T05:06:19;9.90;99.90
18392;DHT22;9322;50.932;5.318;2023-04-01T05:08:45;9.90;99.90
18392;DHT22;9322;50.932;5.318;2023-04-01T05:11:13;9.90;99.90
18392;DHT22;9322;50.932;5.318;2023-04-01T05:13:39;10.00;99.90
18392;DHT22;9322;50.932;5.318;2023-04-01T05:16:10;10.00;99.90
18392;DHT22;9322;50.932;5.318;2023-04-01T05:18:36;9.90;99.90
18392;DHT22;9322;50.932;5.318;2023-04-01T05:21:02;9.90;99.90
18392;DHT22;9322;50.932;5.318;2023-04-01T05:23:27;9.90;99.90
18392;DHT22;9322;50.932;5.318;2023-04-01T05:25:53;10.00;99.90
18392;DHT22;9322;50.932;5.318;2023-04-01T05:28:19;9.90;99.90
18392;DHT22;9322;50.932;5.318;2023-04-01T05:30:46;9.90;99.90
18392;DHT22;9322;50.932;5.318;2023-04-01T05:33:12;9.90;99.90
18392;DHT22;9322;50.932;5.318;2023-04-01T05:35:39;10.00;99.90
18392;DHT22;9322;50.932;5.318;2023-04-01T05:38:05;10.10;99.90
18392;DHT22;9322;50.932;5.318;2023-04-01T05:40:32;10.00;99.90
18392;DHT22;9322;50.932;5.318;2023-04-01T05:42:58;10.10;99.90
18392;DHT22;9322;50.932;5.318;2023-04-01T05:45:25;10.10;99.90
18392;DHT22;9322;50.932;5.318;2023-04-01T05:47:51;10.10;99.90
18392;DHT22;9322;50.932;5.318;2023-04-01T05:50:17;10.00;99.90
18392;DHT22;9322;50.932;5.318;2023-04-01T05:52:42;10.10;99.90
18392;DHT22;9322;50.932;5.318;2023-04-01T05:55:08;10.10;99.90
18392;DHT22;9322;50.932;5.318;2023-04-01T05:57:34;10.10;99.90
18392;DHT22;9322;50.932;5.318;2023-04-01T06:00:00;10.00;99.90
18392;DHT22;9322;50.932;5.318;2023-04-01T06:02:26;10.10;99.90
18392;DHT22;9322;50.932;5.318;2023-04-01T06:07:40;10.00;99.90
18392;DHT22;9322;50.932;5.318;2023-04-01T06:10:17;10.30;99.90
18392;DHT22;9322;50.932;5.318;2023-04-01T06:15:39;10.10;99.90
18392;DHT22;9322;50.932;5.318;2023-04-01T06:18:26;10.10;99.90
18392;DHT22;9322;50.932;5.318;2023-04-01T06:21:08;10.10;99.90
18392;DHT22;9322;50.932;5.318;2023-04-01T06:26:24;10.00;99.90
18392;DHT22;9322;50.932;5.318;2023-04-01T06:51:59;10.30;99.90
18392;DHT22;9322;50.932;5.318;2023-04-01T06:54:36;10.10;99.90
18392;DHT22;9322;50.932;5.318;2023-04-01T06:57:35;10.10;99.90
18392;DHT22;9322;50.932;5.318;2023-04-01T07:05:34;10.20;99.90
18392;DHT22;9322;50.932;5.318;2023-04-01T07:08:03;10.20;99.90
18392;DHT22;9322;50.932;5.318;2023-04-01T07:13:36;10.20;99.90
18392;DHT22;9322;50.932;5.318;2023-04-01T07:16:19;10.30;99.90
18392;DHT22;9322;50.932;5.318;2023-04-01T07:21:40;10.40;99.90
18392;DHT22;9322;50.932;5.318;2023-04-01T07:24:21;10.30;99.90
18392;DHT22;9322;50.932;5.318;2023-04-01T07:26:55;10.20;99.90
18392;DHT22;9322;50.932;5.318;2023-04-01T07:29:22;10.30;99.90
18392;DHT22;9322;50.932;5.318;2023-04-01T07:32:11;10.30;99.90
18392;DHT22;9322;50.932;5.318;2023-04-01T07:35:15;10.40;99.90
18392;DHT22;9322;50.932;5.318;2023-04-01T07:57:10;10.40;99.90
18392;DHT22;9322;50.932;5.318;2023-04-01T07:59:40;10.30;99.90
18392;DHT22;9322;50.932;5.318;2023-04-01T08:02:48;10.50;99.90
18392;DHT22;9322;50.932;5.318;2023-04-01T08:05:22;10.20;99.90
18392;DHT22;9322;50.932;5.318;2023-04-01T08:08:16;10.10;99.90
18392;DHT22;9322;50.932;5.318;2023-04-01T08:10:57;10.20;99.90
18392;DHT22;9322;50.932;5.318;2023-04-01T08:21:51;10.40;99.90
18392;DHT22;9322;50.932;5.318;2023-04-01T08:26:53;10.40;99.90
18392;DHT22;9322;50.932;5.318;2023-04-01T08:32:28;10.60;99.90
18392;DHT22;9322;50.932;5.318;2023-04-01T08:37:44;10.70;99.90
18392;DHT22;9322;50.932;5.318;2023-04-01T08:40:29;10.60;99.90
18392;DHT22;9322;50.932;5.318;2023-04-01T08:56:47;11.00;99.90
18392;DHT22;9322;50.932;5.318;2023-04-01T09:11:21;11.00;99.90
18392;DHT22;9322;50.932;5.318;2023-04-01T09:14:23;11.20;99.90
18392;DHT22;9322;50.932;5.318;2023-04-01T09:19:21;11.30;99.90
18392;DHT22;9322;50.932;5.318;2023-04-01T09:22:17;11.40;99.90
18392;DHT22;9322;50.932;5.318;2023-04-01T09:25:06;11.30;99.90
18392;DHT22;9322;50.932;5.318;2023-04-01T10:09:04;12.00;99.90
18392;DHT22;9322;50.932;5.318;2023-04-01T10:23:08;12.00;99.90
18392;DHT22;9322;50.932;5.318;2023-04-01T10:26:10;12.00;99.90
18392;DHT22;9322;50.932;5.318;2023-04-01T10:31:27;12.10;99.90
18392;DHT22;9322;50.932;5.318;2023-04-01T10:37:08;12.10;99.90
18392;DHT22;9322;50.932;5.318;2023-04-01T11:04:56;11.90;99.90
18392;DHT22;9322;50.932;5.318;2023-04-01T11:19:17;11.70;99.90
18392;DHT22;9322;50.932;5.318;2023-04-01T11:22:36;11.60;99.90
18392;DHT22;9322;50.932;5.318;2023-04-01T11:25:29;11.50;99.90
18392;DHT22;9322;50.932;5.318;2023-04-01T11:28:17;11.40;99.90
18392;DHT22;9322;50.932;5.318;2023-04-01T11:42:15;11.60;99.90
18392;DHT22;9322;50.932;5.318;2023-04-01T11:45:06;11.70;99.90
18392;DHT22;9322;50.932;5.318;2023-04-01T11:47:48;11.70;99.90
18392;DHT22;9322;50.932;5.318;2023-04-01T11:56:20;11.70;99.90
18392;DHT22;9322;50.932;5.318;2023-04-01T11:59:14;11.70;99.90
18392;DHT22;9322;50.932;5.318;2023-04-01T12:09:58;11.90;99.90
18392;DHT22;9322;50.932;5.318;2023-04-01T12:15:56;12.20;99.90
18392;DHT22;9322;50.932;5.318;2023-04-01T12:18:52;12.20;99.90
18392;DHT22;9322;50.932;5.318;2023-04-01T12:21:35;12.10;99.90
18392;DHT22;9322;50.932;5.318;2023-04-01T12:38:42;11.50;99.90
18392;DHT22;9322;50.932;5.318;2023-04-01T12:41:36;11.30;99.90
18392;DHT22;9322;50.932;5.318;2023-04-01T12:49:59;11.70;99.90
18392;DHT22;9322;50.932;5.318;2023-04-01T12:55:35;11.60;99.90
18392;DHT22;9322;50.932;5.318;2023-04-01T13:03:40;11.70;99.90
18392;DHT22;9322;50.932;5.318;2023-04-01T13:08:54;12.00;99.90
18392;DHT22;9322;50.932;5.318;2023-04-01T13:25:46;12.00;99.90
18392;DHT22;9322;50.932;5.318;2023-04-01T13:31:43;11.80;99.90
18392;DHT22;9322;50.932;5.318;2023-04-01T13:47:53;11.80;99.90
18392;DHT22;9322;50.932;5.318;2023-04-01T13:50:37;11.70;99.90
18392;DHT22;9322;50.932;5.318;2023-04-01T13:53:55;11.60;99.90
18392;DHT22;9322;50.932;5.318;2023-04-01T13:59:37;11.40;99.90
18392;DHT22;9322;50.932;5.318;2023-04-01T14:14:01;11.80;99.90
18392;DHT22;9322;50.932;5.318;2023-04-01T14:30:24;11.80;99.90
18392;DHT22;9322;50.932;5.318;2023-04-01T14:49:39;12.10;99.90
18392;DHT22;9322;50.932;5.318;2023-04-01T14:54:48;12.00;99.90
18392;DHT22;9322;50.932;5.318;2023-04-01T15:05:38;11.60;99.90
18392;DHT22;9322;50.932;5.318;2023-04-01T15:08:24;11.50;99.90
18392;DHT22;9322;50.932;5.318;2023-04-01T15:14:16;11.60;99.90
18392;DHT22;9322;50.932;5.318;2023-04-01T15:17:05;11.50;99.90
18392;DHT22;9322;50.932;5.318;2023-04-01T15:19:46;11.50;99.90
18392;DHT22;9322;50.932;5.318;2023-04-01T15:33:21;11.70;99.90
18392;DHT22;9322;50.932;5.318;2023-04-01T15:41:50;11.80;99.90
18392;DHT22;9322;50.932;5.318;2023-04-01T15:44:59;12.10;99.90
18392;DHT22;9322;50.932;5.318;2023-04-01T15:52:35;12.00;99.90
18392;DHT22;9322;50.932;5.318;2023-04-01T15:55:26;12.20;99.90
18392;DHT22;9322;50.932;5.318;2023-04-01T16:00:53;12.40;99.90
18392;DHT22;9322;50.932;5.318;2023-04-01T16:09:00;12.30;99.90
18392;DHT22;9322;50.932;5.318;2023-04-01T16:14:23;12.00;99.90
18392;DHT22;9322;50.932;5.318;2023-04-01T16:22:25;11.80;99.90
18392;DHT22;9322;50.932;5.318;2023-04-01T16:33:52;11.80;99.90
18392;DHT22;9322;50.932;5.318;2023-04-01T16:39:44;11.60;99.90
18392;DHT22;9322;50.932;5.318;2023-04-01T16:42:13;11.40;99.90
18392;DHT22;9322;50.932;5.318;2023-04-01T16:48:15;11.30;99.90
18392;DHT22;9322;50.932;5.318;2023-04-01T16:53:25;11.10;99.90
18392;DHT22;9322;50.932;5.318;2023-04-01T16:56:07;11.10;99.90
18392;DHT22;9322;50.932;5.318;2023-04-01T16:58:41;10.80;99.90
18392;DHT22;9322;50.932;5.318;2023-04-01T17:01:23;10.90;99.90
18392;DHT22;9322;50.932;5.318;2023-04-01T17:03:53;11.00;99.90
18392;DHT22;9322;50.932;5.318;2023-04-01T17:06:35;11.00;99.90
18392;DHT22;9322;50.932;5.318;2023-04-01T17:09:41;11.30;99.90
18392;DHT22;9322;50.932;5.318;2023-04-01T17:12:20;11.00;99.90
18392;DHT22;9322;50.932;5.318;2023-04-01T17:15:02;10.90;99.90
18392;DHT22;9322;50.932;5.318;2023-04-01T17:17:45;10.90;99.90
18392;DHT22;9322;50.932;5.318;2023-04-01T17:20:27;10.70;99.90
18392;DHT22;9322;50.932;5.318;2023-04-01T17:25:48;10.60;99.90
18392;DHT22;9322;50.932;5.318;2023-04-01T17:28:46;10.40;99.90
18392;DHT22;9322;50.932;5.318;2023-04-01T17:33:58;10.30;99.90
18392;DHT22;9322;50.932;5.318;2023-04-01T17:42:11;10.20;99.90
18392;DHT22;9322;50.932;5.318;2023-04-01T17:45:00;10.20;99.90
18392;DHT22;9322;50.932;5.318;2023-04-01T17:55:50;10.20;99.90
18392;DHT22;9322;50.932;5.318;2023-04-01T18:01:25;10.20;99.90
18392;DHT22;9322;50.932;5.318;2023-04-01T18:03:59;10.10;99.90
18392;DHT22;9322;50.932;5.318;2023-04-01T18:06:33;10.10;99.90
18392;DHT22;9322;50.932;5.318;2023-04-01T18:20:24;10.10;99.90
18392;DHT22;9322;50.932;5.318;2023-04-01T18:23:04;10.10;99.90
18392;DHT22;9322;50.932;5.318;2023-04-01T18:25:43;10.10;99.90
18392;DHT22;9322;50.932;5.318;2023-04-01T18:30:43;10.20;99.90
18392;DHT22;9322;50.932;5.318;2023-04-01T18:33:23;10.20;99.90
18392;DHT22;9322;50.932;5.318;2023-04-01T18:39:03;10.10;99.90
18392;DHT22;9322;50.932;5.318;2023-04-01T18:44:46;10.20;99.90
18392;DHT22;9322;50.932;5.318;2023-04-01T18:49:55;10.10;99.90
18392;DHT22;9322;50.932;5.318;2023-04-01T18:52:59;10.00;99.90
18392;DHT22;9322;50.932;5.318;2023-04-01T18:55:41;10.10;99.90
18392;DHT22;9322;50.932;5.318;2023-04-01T19:09:52;10.10;99.90
18392;DHT22;9322;50.932;5.318;2023-04-01T19:15:18;10.10;99.90
18392;DHT22;9322;50.932;5.318;2023-04-01T19:18:17;10.10;99.90
18392;DHT22;9322;50.932;5.318;2023-04-01T19:20:53;10.10;99.90
18392;DHT22;9322;50.932;5.318;2023-04-01T19:36:58;10.00;99.90
18392;DHT22;9322;50.932;5.318;2023-04-01T19:48:29;10.00;99.90
18392;DHT22;9322;50.932;5.318;2023-04-01T19:56:24;9.90;99.90
18392;DHT22;9322;50.932;5.318;2023-04-01T20:07:11;10.10;99.90
18392;DHT22;9322;50.932;5.318;2023-04-01T20:12:42;10.10;99.90
18392;DHT22;9322;50.932;5.318;2023-04-01T20:15:27;9.90;99.90
18392;DHT22;9322;50.932;5.318;2023-04-01T20:17:55;10.00;99.90
18392;DHT22;9322;50.932;5.318;2023-04-01T20:20:24;10.10;99.90
18392;DHT22;9322;50.932;5.318;2023-04-01T20:23:05;10.10;99.90
18392;DHT22;9322;50.932;5.318;2023-04-01T20:25:49;10.00;99.90
18392;DHT22;9322;50.932;5.318;2023-04-01T20:31:07;10.10;99.90
18392;DHT22;9322;50.932;5.318;2023-04-01T20:44:12;9.90;99.90
18392;DHT22;9322;50.932;5.318;2023-04-01T20:47:15;10.00;99.90
18392;DHT22;9322;50.932;5.318;2023-04-01T20:52:32;9.90;99.90
18392;DHT22;9322;50.932;5.318;2023-04-01T20:55:27;9.90;99.90
18392;DHT22;9322;50.932;5.318;2023-04-01T20:58:09;9.80;99.90
18392;DHT22;9322;50.932;5.318;2023-04-01T21:06:27;9.90;99.90
18392;DHT22;9322;50.932;5.318;2023-04-01T21:17:38;10.20;99.90
18392;DHT22;9322;50.932;5.318;2023-04-01T21:25:22;10.30;99.90
18392;DHT22;9322;50.932;5.318;2023-04-01T21:31:04;10.40;99.90
18392;DHT22;9322;50.932;5.318;2023-04-01T21:36:45;9.90;99.90
18392;DHT22;9322;50.932;5.318;2023-04-01T21:39:34;9.90;99.90
18392;DHT22;9322;50.932;5.318;2023-04-01T21:42:21;9.90;99.90
18392;DHT22;9322;50.932;5.318;2023-04-01T21:45:06;9.90;99.90
18392;DHT22;9322;50.932;5.318;2023-04-01T21:50:44;10.00;99.90
18392;DHT22;9322;50.932;5.318;2023-04-01T21:54:40;10.00;99.90
18392;DHT22;9322;50.932;5.318;2023-04-01T21:59:08;9.80;99.90
18392;DHT22;9322;50.932;5.318;2023-04-01T22:05:04;9.80;99.90
18392;DHT22;9322;50.932;5.318;2023-04-01T22:21:56;9.80;99.90
18392;DHT22;9322;50.932;5.318;2023-04-01T22:24:29;9.60;99.90
18392;DHT22;9322;50.932;5.318;2023-04-01T22:27:07;9.60;99.90
18392;DHT22;9322;50.932;5.318;2023-04-01T22:29:42;9.60;99.90
18392;DHT22;9322;50.932;5.318;2023-04-01T22:32:18;9.60;99.90
18392;DHT22;9322;50.932;5.318;2023-04-01T22:48:32;9.10;99.90
18392;DHT22;9322;50.932;5.318;2023-04-01T22:51:26;9.10;99.90
18392;DHT22;9322;50.932;5.318;2023-04-01T22:56:59;9.10;99.90
18392;DHT22;9322;50.932;5.318;2023-04-01T22:59:35;9.20;99.90
18392;DHT22;9322;50.932;5.318;2023-04-01T23:02:11;9.10;99.90
18392;DHT22;9322;50.932;5.318;2023-04-01T23:04:41;9.30;99.90
18392;DHT22;9322;50.932;5.318;2023-04-01T23:11:00;9.20;99.90
18392;DHT22;9322;50.932;5.318;2023-04-01T23:13:28;9.10;99.90
18392;DHT22;9322;50.932;5.318;2023-04-01T23:15:55;9.00;99.90
18392;DHT22;9322;50.932;5.318;2023-04-01T23:26:39;8.90;99.90
18392;DHT22;9322;50.932;5.318;2023-04-01T23:29:13;9.00;99.90
18392;DHT22;9322;50.932;5.318;2023-04-01T23:31:41;8.90;99.90
18392;DHT22;9322;50.932;5.318;2023-04-01T23:36:46;9.00;99.90
18392;DHT22;9322;50.932;5.318;2023-04-01T23:41:48;8.80;99.90
18392;DHT22;9322;50.932;5.318;2023-04-01T23:44:15;8.80;99.90
18392;DHT22;9322;50.932;5.318;2023-04-01T23:46:44;8.80;99.90
18392;DHT22;9322;50.932;5.318;2023-04-01T23:49:33;8.80;99.90
18392;DHT22;9322;50.932;5.318;2023-04-01T23:52:29;8.70;99.90
18392;DHT22;9322;50.932;5.318;2023-04-01T23:55:00;8.60;99.90
18392;DHT22;9322;50.932;5.318;2023-04-01T23:57:34;8.60;99.90
